createdAt,value
2024-03-28T00:02:13.400Z,11.24
2024-03-28T00:04:44.749Z,11.29
2024-03-28T00:07:15.154Z,11.33
2024-03-28T00:09:46.839Z,11.38
2024-03-28T00:12:17.060Z,11.43
2024-03-28T00:14:48.491Z,11.47
2024-03-28T00:17:18.926Z,11.50
2024-03-28T00:19:50.480Z,11.51
2024-03-28T00:22:20.613Z,11.52
2024-03-28T00:24:53.076Z,11.51
2024-03-28T00:27:23.395Z,11.50
2024-03-28T00:29:54.749Z,11.48
2024-03-28T00:32:24.967Z,11.45
2024-03-28T00:34:56.310Z,11.42
2024-03-28T00:37:26.530Z,11.40
2024-03-28T00:39:58.087Z,11.35
2024-03-28T00:42:28.716Z,11.30
2024-03-28T00:45:00.057Z,11.25
2024-03-28T00:47:30.556Z,11.19
2024-03-28T00:50:02.175Z,11.14
2024-03-28T00:52:32.486Z,11.10
2024-03-28T00:55:04.589Z,11.05
2024-03-28T00:57:34.966Z,10.99
2024-03-28T01:00:06.604Z,10.96
2024-03-28T01:02:36.827Z,10.92
2024-03-28T01:05:08.208Z,10.89
2024-03-28T01:07:38.921Z,10.88
2024-03-28T01:10:10.611Z,10.85
2024-03-28T01:12:40.579Z,10.84
2024-03-28T01:15:12.567Z,10.82
2024-03-28T01:17:42.890Z,10.80
2024-03-28T01:20:14.760Z,10.78
2024-03-28T01:22:44.857Z,10.77
2024-03-28T01:25:16.838Z,10.77
2024-03-28T01:27:46.938Z,10.77
2024-03-28T01:30:18.587Z,10.78
2024-03-28T01:32:48.712Z,10.79
2024-03-28T01:35:20.565Z,10.83
2024-03-28T01:37:50.683Z,10.85
2024-03-28T01:40:22.346Z,10.89
2024-03-28T01:42:52.571Z,10.91
2024-03-28T01:45:24.314Z,10.95
2024-03-28T01:48:01.007Z,10.99
2024-03-28T01:50:34.178Z,11.04
2024-03-28T01:53:04.815Z,11.07
2024-03-28T01:55:36.361Z,11.10
2024-03-28T01:58:12.283Z,11.11
2024-03-28T02:00:43.446Z,11.11
2024-03-28T02:03:15.227Z,11.11
2024-03-28T02:05:45.546Z,11.11
2024-03-28T02:08:16.901Z,11.08
2024-03-28T02:10:47.311Z,11.07
2024-03-28T02:13:18.952Z,11.07
2024-03-28T02:15:49.602Z,11.07
2024-03-28T02:18:21.350Z,11.07
2024-03-28T02:20:52.103Z,11.07
2024-03-28T02:23:23.736Z,11.09
2024-03-28T02:25:53.974Z,11.09
2024-03-28T02:28:25.535Z,11.11
2024-03-28T02:30:55.749Z,11.15
2024-03-28T02:33:27.292Z,11.19
2024-03-28T02:35:57.824Z,11.25
2024-03-28T02:38:29.362Z,11.33
2024-03-28T02:40:59.590Z,11.42
2024-03-28T02:43:31.082Z,11.51
2024-03-28T02:46:01.372Z,11.59
2024-03-28T02:48:32.974Z,11.67
2024-03-28T02:51:03.151Z,11.74
2024-03-28T02:53:35.115Z,11.81
2024-03-28T02:56:05.018Z,11.87
2024-03-28T02:58:36.671Z,11.95
2024-03-28T03:01:06.676Z,12.01
2024-03-28T03:03:38.301Z,12.05
2024-03-28T03:06:08.562Z,12.09
2024-03-28T03:08:40.212Z,12.11
2024-03-28T03:11:10.335Z,12.15
2024-03-28T03:13:41.687Z,12.18
2024-03-28T03:16:12.209Z,12.20
2024-03-28T03:18:43.660Z,12.20
2024-03-28T03:21:14.306Z,12.20
2024-03-28T03:23:51.161Z,12.21
2024-03-28T03:26:26.000Z,12.21
2024-03-28T03:29:17.115Z,12.21
2024-03-28T03:32:07.196Z,12.20
2024-03-28T03:34:38.855Z,12.21
2024-03-28T03:37:09.209Z,12.20
2024-03-28T03:39:40.834Z,12.19
2024-03-28T03:42:12.286Z,12.17
2024-03-28T03:44:43.838Z,12.16
2024-03-28T03:47:14.266Z,12.16
2024-03-28T03:49:45.896Z,12.15
2024-03-28T03:52:16.471Z,12.16
2024-03-28T03:54:48.000Z,12.16
2024-03-28T03:57:18.332Z,12.16
2024-03-28T03:59:49.981Z,12.16
2024-03-28T04:02:20.305Z,12.16
2024-03-28T04:04:52.061Z,12.15
2024-03-28T04:07:22.785Z,12.14
2024-03-28T04:09:54.862Z,12.13
2024-03-28T04:12:24.865Z,12.11
2024-03-28T04:14:56.419Z,12.11
2024-03-28T04:17:26.439Z,12.11
2024-03-28T04:19:58.398Z,12.13
2024-03-28T04:22:28.513Z,12.16
2024-03-28T04:25:00.104Z,12.19
2024-03-28T04:27:30.292Z,12.22
2024-03-28T04:30:02.545Z,12.26
2024-03-28T04:32:32.666Z,12.30
2024-03-28T04:35:05.374Z,12.33
2024-03-28T04:37:35.567Z,12.38
2024-03-28T04:40:10.520Z,12.43
2024-03-28T04:42:43.183Z,12.49
2024-03-28T04:45:14.633Z,12.56
2024-03-28T04:47:46.207Z,12.62
2024-03-28T04:50:16.606Z,12.65
2024-03-28T04:52:48.484Z,12.67
2024-03-28T04:55:18.914Z,12.70
2024-03-28T04:57:50.553Z,12.72
2024-03-28T05:00:20.770Z,12.74
2024-03-28T05:02:52.439Z,12.76
2024-03-28T05:05:22.744Z,12.79
2024-03-28T05:07:54.409Z,12.83
2024-03-28T05:10:24.986Z,12.86
2024-03-28T05:12:56.489Z,12.88
2024-03-28T05:15:27.228Z,12.90
2024-03-28T05:17:59.797Z,12.93
2024-03-28T05:20:30.220Z,12.95
2024-03-28T05:23:01.994Z,12.96
2024-03-28T05:25:32.497Z,12.97
2024-03-28T05:28:04.574Z,12.97
2024-03-28T05:30:35.008Z,12.95
2024-03-28T05:33:06.862Z,12.93
2024-03-28T05:35:37.599Z,12.86
2024-03-28T05:38:09.046Z,12.77
2024-03-28T05:40:39.283Z,12.67
2024-03-28T05:43:10.916Z,12.58
2024-03-28T05:45:41.563Z,12.52
2024-03-28T05:48:13.210Z,12.48
2024-03-28T05:50:43.532Z,12.45
2024-03-28T05:53:15.600Z,12.44
2024-03-28T05:55:45.810Z,12.44
2024-03-28T05:58:17.376Z,12.45
2024-03-28T06:00:48.000Z,12.48
2024-03-28T06:03:19.540Z,12.50
2024-03-28T06:05:49.686Z,12.52
2024-03-28T06:08:21.535Z,12.55
2024-03-28T06:10:51.856Z,12.57
2024-03-28T06:13:24.330Z,12.57
2024-03-28T06:15:54.659Z,12.56
2024-03-28T06:18:26.317Z,12.55
2024-03-28T06:20:56.427Z,12.55
2024-03-28T06:23:28.077Z,12.57
2024-03-28T06:25:58.321Z,12.61
2024-03-28T06:28:30.062Z,12.68
2024-03-28T06:31:01.008Z,12.77
2024-03-28T06:33:32.559Z,12.87
2024-03-28T06:36:06.133Z,12.97
2024-03-28T06:38:37.549Z,13.10
2024-03-28T06:41:07.667Z,13.19
2024-03-28T06:43:39.262Z,13.25
2024-03-28T06:46:09.491Z,13.28
2024-03-28T06:48:41.138Z,13.29
2024-03-28T06:51:11.252Z,13.28
2024-03-28T06:53:42.817Z,13.28
2024-03-28T06:56:13.351Z,13.29
2024-03-28T06:58:44.990Z,13.33
2024-03-28T07:01:15.204Z,13.34
2024-03-28T07:03:46.663Z,13.37
2024-03-28T07:06:19.454Z,13.44
2024-03-28T07:08:50.989Z,13.53
2024-03-28T07:11:21.108Z,13.62
2024-03-28T07:13:52.777Z,13.70
2024-03-28T07:16:23.066Z,13.74
2024-03-28T07:18:55.370Z,13.78
2024-03-28T07:21:25.587Z,13.83
2024-03-28T07:23:57.139Z,13.88
2024-03-28T07:26:27.766Z,13.89
2024-03-28T07:29:01.356Z,13.91
2024-03-28T07:31:35.583Z,13.94
2024-03-28T07:34:06.329Z,13.98
2024-03-28T07:36:39.809Z,14.05
2024-03-28T07:39:12.948Z,14.16
2024-03-28T07:41:44.672Z,14.32
2024-03-28T07:44:14.793Z,14.49
2024-03-28T07:46:46.545Z,14.63
2024-03-28T07:49:17.465Z,14.74
2024-03-28T07:51:49.251Z,14.85
2024-03-28T07:54:19.461Z,14.92
2024-03-28T07:56:51.108Z,14.96
2024-03-28T07:59:22.039Z,14.98
2024-03-28T08:01:54.218Z,15.02
2024-03-28T08:04:24.255Z,15.01
2024-03-28T08:06:55.894Z,15.03
2024-03-28T08:09:27.538Z,15.10
2024-03-28T08:11:59.494Z,15.14
2024-03-28T08:14:29.517Z,15.07
2024-03-28T08:17:01.488Z,14.98
2024-03-28T08:19:31.521Z,14.88
2024-03-28T08:22:03.051Z,14.79
2024-03-28T08:24:33.178Z,14.67
2024-03-28T08:27:09.028Z,14.68
2024-03-28T08:29:40.989Z,14.90
2024-03-28T08:32:11.207Z,15.11
2024-03-28T08:34:43.167Z,15.21
2024-03-28T08:37:13.600Z,15.28
2024-03-28T08:39:45.136Z,15.50
2024-03-28T08:42:15.256Z,15.64
2024-03-28T08:44:48.314Z,15.61
2024-03-28T08:47:19.410Z,15.69
2024-03-28T08:49:51.451Z,15.76
2024-03-28T08:52:21.671Z,15.82
2024-03-28T08:54:53.136Z,15.91
2024-03-28T08:57:23.549Z,16.07
2024-03-28T08:59:55.512Z,16.04
2024-03-28T09:02:26.149Z,15.75
2024-03-28T09:04:57.590Z,15.46
2024-03-28T09:07:28.249Z,15.33
2024-03-28T09:10:00.696Z,15.27
2024-03-28T09:12:31.140Z,15.27
2024-03-28T09:15:02.689Z,15.36
2024-03-28T09:17:32.997Z,15.48
2024-03-28T09:20:07.530Z,15.36
2024-03-28T09:22:40.001Z,15.15
2024-03-28T09:25:11.025Z,15.10
2024-03-28T09:27:42.283Z,14.97
2024-03-28T09:30:12.905Z,14.73
2024-03-28T09:32:44.567Z,14.42
2024-03-28T09:35:15.919Z,14.11
2024-03-28T09:37:48.390Z,13.87
2024-03-28T09:40:18.609Z,13.68
2024-03-28T09:42:49.949Z,13.55
2024-03-28T09:45:20.285Z,13.49
2024-03-28T09:47:53.163Z,13.56
2024-03-28T09:50:23.489Z,13.74
2024-03-28T09:52:55.839Z,13.90
2024-03-28T09:55:26.927Z,14.12
2024-03-28T09:58:03.499Z,14.27
2024-03-28T10:00:35.758Z,14.57
2024-03-28T10:03:06.397Z,14.73
2024-03-28T10:05:38.132Z,14.80
2024-03-28T10:08:08.762Z,14.83
2024-03-28T10:10:40.468Z,14.88
2024-03-28T10:13:12.472Z,14.96
2024-03-28T10:15:44.042Z,15.00
2024-03-28T10:18:14.454Z,15.06
2024-03-28T10:20:46.107Z,15.00
2024-03-28T10:23:17.243Z,14.91
2024-03-28T10:25:49.419Z,14.74
2024-03-28T10:28:20.676Z,14.60
2024-03-28T10:30:52.308Z,14.50
2024-03-28T10:33:22.668Z,14.46
2024-03-28T10:35:54.700Z,14.51
2024-03-28T10:38:25.452Z,14.65
2024-03-28T10:40:59.651Z,14.88
2024-03-28T10:43:32.546Z,15.15
2024-03-28T10:46:02.546Z,15.55
2024-03-28T10:48:34.552Z,15.92
2024-03-28T10:51:04.529Z,16.20
2024-03-28T10:53:38.559Z,16.29
2024-03-28T10:56:09.150Z,16.30
2024-03-28T10:58:41.023Z,16.35
2024-03-28T11:01:11.926Z,16.39
2024-03-28T11:03:47.227Z,16.49
2024-03-28T11:06:17.942Z,16.60
2024-03-28T11:08:49.400Z,16.73
2024-03-28T11:11:20.237Z,16.94
2024-03-28T11:13:54.741Z,17.22
2024-03-28T11:16:27.645Z,17.45
2024-03-28T11:18:58.059Z,17.52
2024-03-28T11:21:29.825Z,17.56
2024-03-28T11:24:01.376Z,17.47
2024-03-28T11:26:32.821Z,17.56
2024-03-28T11:29:03.445Z,17.58
2024-03-28T11:31:36.595Z,17.46
2024-03-28T11:34:11.063Z,17.29
2024-03-28T11:36:41.589Z,17.11
2024-03-28T11:39:14.263Z,17.02
2024-03-28T11:41:44.480Z,17.19
2024-03-28T11:44:15.738Z,17.42
2024-03-28T11:46:46.567Z,17.54
2024-03-28T11:49:17.913Z,17.75
2024-03-28T11:51:48.340Z,17.95
2024-03-28T11:54:19.683Z,18.04
2024-03-28T11:56:52.670Z,18.15
2024-03-28T11:59:24.128Z,18.16
2024-03-28T12:01:54.540Z,18.17
2024-03-28T12:04:31.131Z,18.40
2024-03-28T12:07:03.809Z,18.67
2024-03-28T12:09:35.452Z,18.66
2024-03-28T12:12:08.046Z,18.61
2024-03-28T12:14:38.455Z,18.55
2024-03-28T12:17:10.229Z,18.53
2024-03-28T12:19:40.782Z,18.30
2024-03-28T12:22:12.811Z,18.40
2024-03-28T12:24:43.021Z,18.51
2024-03-28T12:27:14.684Z,18.71
2024-03-28T12:29:45.114Z,18.85
2024-03-28T12:32:19.437Z,18.95
2024-03-28T12:34:52.627Z,19.04
2024-03-28T12:37:24.407Z,19.02
2024-03-28T12:39:56.848Z,19.03
2024-03-28T12:42:29.472Z,19.07
2024-03-28T12:45:04.977Z,19.21
2024-03-28T12:47:38.990Z,19.47
2024-03-28T12:50:10.484Z,19.87
2024-03-28T12:52:41.811Z,20.48
2024-03-28T12:55:12.989Z,21.36
2024-03-28T12:57:45.619Z,22.57
2024-03-28T13:00:16.556Z,23.84
2024-03-28T13:02:48.192Z,25.03
2024-03-28T13:05:19.709Z,26.25
2024-03-28T13:07:51.500Z,27.40
2024-03-28T13:10:21.921Z,28.15
2024-03-28T13:12:53.470Z,28.19
2024-03-28T13:15:25.036Z,26.66
2024-03-28T13:17:56.780Z,25.97
2024-03-28T13:20:27.008Z,27.03
2024-03-28T13:22:58.452Z,27.98
2024-03-28T13:25:30.443Z,28.60
2024-03-28T13:28:03.915Z,29.50
2024-03-28T13:30:34.343Z,30.50
2024-03-28T13:33:05.886Z,31.26
2024-03-28T13:35:36.731Z,31.79
2024-03-28T13:38:10.945Z,32.43
2024-03-28T13:40:42.254Z,32.85
2024-03-28T13:43:13.943Z,33.11
2024-03-28T13:45:44.886Z,33.15
2024-03-28T13:48:16.331Z,33.44
2024-03-28T13:50:46.767Z,33.84
2024-03-28T13:53:18.323Z,34.24
2024-03-28T13:55:49.369Z,34.76
2024-03-28T13:58:21.007Z,35.25
2024-03-28T14:00:51.334Z,35.73
2024-03-28T14:03:23.275Z,35.83
2024-03-28T14:05:53.719Z,35.86
2024-03-28T14:08:25.788Z,36.03
2024-03-28T14:10:56.018Z,35.99
2024-03-28T14:13:27.766Z,35.74
2024-03-28T14:15:57.926Z,35.40
2024-03-28T14:18:29.707Z,34.82
2024-03-28T14:21:00.061Z,34.63
2024-03-28T14:23:32.026Z,34.35
2024-03-28T14:26:02.383Z,34.27
2024-03-28T14:28:34.427Z,34.50
2024-03-28T14:31:04.889Z,34.94
2024-03-28T14:33:36.701Z,35.58
2024-03-28T14:36:06.923Z,36.01
2024-03-28T14:38:38.672Z,36.17
2024-03-28T14:41:09.223Z,35.95
2024-03-28T14:43:42.117Z,35.13
2024-03-28T14:46:12.425Z,34.78
2024-03-28T14:48:43.962Z,34.06
2024-03-28T14:51:14.595Z,33.22
2024-03-28T14:53:46.140Z,32.63
2024-03-28T14:56:16.369Z,32.50
2024-03-28T14:58:47.828Z,33.17
2024-03-28T15:01:18.144Z,33.77
2024-03-28T15:03:49.999Z,34.38
2024-03-28T15:06:20.319Z,34.44
2024-03-28T15:08:51.878Z,33.82
2024-03-28T15:11:22.111Z,33.44
2024-03-28T15:13:53.547Z,33.18
2024-03-28T15:16:24.197Z,32.82
2024-03-28T15:18:56.146Z,32.64
2024-03-28T15:21:26.771Z,32.44
2024-03-28T15:23:58.220Z,31.83
2024-03-28T15:26:28.650Z,30.80
2024-03-28T15:29:00.207Z,29.20
2024-03-28T15:31:30.727Z,27.25
2024-03-28T15:34:02.389Z,25.65
2024-03-28T15:36:32.598Z,24.38
2024-03-28T15:39:05.486Z,23.52
2024-03-28T15:41:36.432Z,22.92
2024-03-28T15:44:08.296Z,22.46
2024-03-28T15:46:39.315Z,22.17
2024-03-28T15:49:11.396Z,21.98
2024-03-28T15:51:41.921Z,22.00
2024-03-28T15:54:13.582Z,21.96
2024-03-28T15:56:44.012Z,21.55
2024-03-28T15:59:15.465Z,21.00
2024-03-28T16:01:46.030Z,20.45
2024-03-28T16:04:17.849Z,19.91
2024-03-28T16:06:48.469Z,19.42
2024-03-28T16:09:20.134Z,18.91
2024-03-28T16:11:50.341Z,18.49
2024-03-28T16:14:21.919Z,18.17
2024-03-28T16:16:52.645Z,17.90
2024-03-28T16:19:24.187Z,17.64
2024-03-28T16:21:54.726Z,17.40
2024-03-28T16:24:27.390Z,17.15
2024-03-28T16:26:57.724Z,16.91
2024-03-28T16:29:29.493Z,16.71
2024-03-28T16:31:59.794Z,16.54
2024-03-28T16:34:31.346Z,16.43
2024-03-28T16:37:01.964Z,16.33
2024-03-28T16:39:33.639Z,16.26
2024-03-28T16:42:04.076Z,16.16
2024-03-28T16:44:35.725Z,16.07
2024-03-28T16:47:06.133Z,16.00
2024-03-28T16:49:37.687Z,15.91
2024-03-28T16:52:07.913Z,15.80
2024-03-28T16:54:39.299Z,15.69
2024-03-28T16:57:09.681Z,15.59
2024-03-28T16:59:41.029Z,15.49
2024-03-28T17:02:11.347Z,15.40
2024-03-28T17:04:45.295Z,15.32
2024-03-28T17:07:15.479Z,15.25
2024-03-28T17:09:46.726Z,15.20
2024-03-28T17:12:17.055Z,15.12
2024-03-28T17:14:49.438Z,15.06
2024-03-28T17:17:21.134Z,15.00
2024-03-28T17:19:52.536Z,14.92
2024-03-28T17:22:22.754Z,14.88
2024-03-28T17:24:56.750Z,14.80
2024-03-28T17:27:35.665Z,14.71
2024-03-28T17:30:13.996Z,14.63
2024-03-28T17:32:46.590Z,14.53
2024-03-28T17:35:17.611Z,14.45
2024-03-28T17:37:48.938Z,14.37
2024-03-28T17:40:19.182Z,14.31
2024-03-28T17:42:50.533Z,14.27
2024-03-28T17:45:21.058Z,14.23
2024-03-28T17:47:52.307Z,14.21
2024-03-28T17:50:23.042Z,14.20
2024-03-28T17:52:59.255Z,14.19
2024-03-28T17:55:33.627Z,14.18
2024-03-28T17:58:05.695Z,14.18
2024-03-28T18:00:37.233Z,14.19
2024-03-28T18:03:07.554Z,14.19
2024-03-28T18:05:41.562Z,14.19
2024-03-28T18:08:13.217Z,14.18
2024-03-28T18:10:46.313Z,14.16
2024-03-28T18:13:16.931Z,14.09
2024-03-28T18:15:48.391Z,13.98
2024-03-28T18:18:18.822Z,13.81
2024-03-28T18:20:50.583Z,13.54
2024-03-28T18:23:21.632Z,13.22
2024-03-28T18:25:53.175Z,12.92
2024-03-28T18:28:23.694Z,12.67
2024-03-28T18:30:55.140Z,12.47
2024-03-28T18:33:25.589Z,12.27
2024-03-28T18:35:57.626Z,12.12
2024-03-28T18:38:28.259Z,11.96
2024-03-28T18:40:59.813Z,11.84
2024-03-28T18:43:30.049Z,11.73
2024-03-28T18:46:01.634Z,11.63
2024-03-28T18:48:32.741Z,11.55
2024-03-28T18:51:04.273Z,11.47
2024-03-28T18:53:34.601Z,11.38
2024-03-28T18:56:06.385Z,11.33
2024-03-28T18:58:36.785Z,11.29
2024-03-28T19:01:08.750Z,11.25
2024-03-28T19:03:39.890Z,11.20
2024-03-28T19:06:11.354Z,11.15
2024-03-28T19:08:41.764Z,11.11
2024-03-28T19:11:13.224Z,11.09
2024-03-28T19:13:43.537Z,11.08
2024-03-28T19:16:14.897Z,11.04
2024-03-28T19:18:45.307Z,11.00
2024-03-28T19:21:16.670Z,10.99
2024-03-28T19:23:47.098Z,10.97
2024-03-28T19:26:18.431Z,10.93
2024-03-28T19:28:48.763Z,10.89
2024-03-28T19:31:20.128Z,10.82
2024-03-28T19:33:50.530Z,10.74
2024-03-28T19:36:24.140Z,10.67
2024-03-28T19:38:54.775Z,10.59
2024-03-28T19:41:26.317Z,10.51
2024-03-28T19:43:56.644Z,10.45
2024-03-28T19:46:27.885Z,10.38
2024-03-28T19:48:58.418Z,10.30
2024-03-28T19:51:29.967Z,10.23
2024-03-28T19:54:00.215Z,10.18
2024-03-28T19:56:32.153Z,10.16
2024-03-28T19:59:02.492Z,10.12
2024-03-28T20:01:36.279Z,10.07
2024-03-28T20:04:06.600Z,10.04
2024-03-28T20:06:38.160Z,9.99
2024-03-28T20:09:09.197Z,9.97
2024-03-28T20:11:40.655Z,9.93
2024-03-28T20:14:12.543Z,9.90
2024-03-28T20:16:44.159Z,9.87
2024-03-28T20:19:17.482Z,9.86
2024-03-28T20:21:50.642Z,9.86
2024-03-28T20:24:20.958Z,9.86
2024-03-28T20:26:53.033Z,9.83
2024-03-28T20:29:23.249Z,9.76
2024-03-28T20:31:57.209Z,9.69
2024-03-28T20:34:30.183Z,9.63
2024-03-28T20:37:00.698Z,9.57
2024-03-28T20:39:33.249Z,9.52
2024-03-28T20:42:03.480Z,9.49
2024-03-28T20:44:35.026Z,9.47
2024-03-28T20:47:05.245Z,9.44
2024-03-28T20:49:36.999Z,9.42
2024-03-28T20:52:07.229Z,9.41
2024-03-28T20:54:38.572Z,9.42
2024-03-28T20:57:09.098Z,9.43
2024-03-28T20:59:40.553Z,9.44
2024-03-28T21:02:10.669Z,9.48
2024-03-28T21:04:42.417Z,9.54
2024-03-28T21:07:31.579Z,9.58
2024-03-28T21:10:22.208Z,9.60
2024-03-28T21:12:54.057Z,9.63
2024-03-28T21:15:24.578Z,9.66
2024-03-28T21:17:56.236Z,9.71
2024-03-28T21:20:26.545Z,9.74
2024-03-28T21:22:58.128Z,9.76
2024-03-28T21:25:28.340Z,9.76
2024-03-28T21:27:59.882Z,9.76
2024-03-28T21:30:30.327Z,9.75
2024-03-28T21:33:01.755Z,9.75
2024-03-28T21:35:32.071Z,9.76
2024-03-28T21:38:03.636Z,9.77
2024-03-28T21:40:34.176Z,9.77
2024-03-28T21:43:06.937Z,9.77
2024-03-28T21:45:37.280Z,9.75
2024-03-28T21:48:09.140Z,9.74
2024-03-28T21:50:39.646Z,9.71
2024-03-28T21:53:11.535Z,9.66
2024-03-28T21:55:43.290Z,9.65
2024-03-28T21:58:14.830Z,9.66
2024-03-28T22:00:45.351Z,9.66
2024-03-28T22:03:16.895Z,9.62
2024-03-28T22:05:47.237Z,9.60
2024-03-28T22:08:18.859Z,9.60
2024-03-28T22:10:49.199Z,9.59
2024-03-28T22:13:20.863Z,9.58
2024-03-28T22:15:51.186Z,9.58
2024-03-28T22:18:22.846Z,9.60
2024-03-28T22:20:53.377Z,9.62
2024-03-28T22:23:24.918Z,9.64
2024-03-28T22:25:55.362Z,9.65
2024-03-28T22:28:27.013Z,9.67
2024-03-28T22:30:57.436Z,9.64
2024-03-28T22:33:29.189Z,9.59
2024-03-28T22:36:00.217Z,9.54
2024-03-28T22:38:31.798Z,9.50
2024-03-28T22:41:02.164Z,9.46
2024-03-28T22:43:33.874Z,9.41
2024-03-28T22:46:04.396Z,9.39
2024-03-28T22:48:36.270Z,9.37
2024-03-28T22:51:09.627Z,9.35
2024-03-28T22:53:42.307Z,9.34
2024-03-28T22:56:12.330Z,9.32
2024-03-28T22:58:44.086Z,9.29
2024-03-28T23:01:14.317Z,9.25
2024-03-28T23:03:46.075Z,9.21
2024-03-28T23:06:16.196Z,9.20
2024-03-28T23:08:48.159Z,9.18
2024-03-28T23:11:18.470Z,9.15
2024-03-28T23:13:50.221Z,9.09
2024-03-28T23:16:20.553Z,9.03
2024-03-28T23:18:52.416Z,8.98
2024-03-28T23:21:22.837Z,8.91
2024-03-28T23:23:54.692Z,8.81
2024-03-28T23:26:24.815Z,8.74
2024-03-28T23:28:58.174Z,8.65
2024-03-28T23:31:28.439Z,8.59
2024-03-28T23:34:00.800Z,8.54
2024-03-28T23:36:31.026Z,8.49
2024-03-28T23:39:02.903Z,8.41
2024-03-28T23:41:33.409Z,8.35
2024-03-28T23:44:04.955Z,8.30
2024-03-28T23:46:35.230Z,8.27
2024-03-28T23:49:06.741Z,8.21
2024-03-28T23:51:36.957Z,8.16
2024-03-28T23:54:08.518Z,8.12
2024-03-28T23:56:38.941Z,8.07
2024-03-28T23:59:10.583Z,8.02
